Pickett, WI (54964)

9:20 AM CDT on May 06, 2015 (GMT -0500)
City of Omro | | Change Station
CLOSE
Current Station
Personal Weather Station
Location: Omro, WI
Elevation: 764 ft
Nearby Weather Stations

Elev 764 ft 44.03 °N, 88.75 °W | Updated 35 seconds ago

Overcast
Overcast
53.5 °F
Feels Like 53.5 °F
N
3.2
Wind Variable Wind from ESE
Gusts 4.0 mph

Today
High -- | Low -- °F
--% Chance of Precip.
Yesterday
High -- | Low -- °F
Precip. -- in
5:40 AM 8:03 PM
Waning Gibbous, 94% visible
Pressure 30.20 in
Visibility 10.0 miles
Clouds Mostly Cloudy 2300 ft
Dew Point 49 °F
Humidity 84%
Rainfall 0.11 in
Snow Depth Not available.
UV 2 out of 12
Pollen 10.00 out of 12
Air Quality Not available.
Flu Activity Local Activity
METAR KOSH 061353Z 12005KT 10SM BKN023 12/09 A3020 RMK AO2 RAB1257E07 SLP226 P0000 T01220089

More Conditions Fewer Conditions

Pressure 30.20 in
Visibility 10.0 miles
Clouds Mostly Cloudy 2300 ft
Dew Point 49 °F
Humidity 84%
Rainfall 0.11 in
Snow Depth Not available.
UV 2 out of 12
Pollen 10.00 out of 12
Air Quality Not available.
Flu Activity Local Activity
METAR KOSH 061353Z 12005KT 10SM BKN023 12/09 A3020 RMK AO2 RAB1257E07 SLP226 P0000 T01220089

More Conditions Fewer Conditions

10-Day Weather Forecast

Almanac

Astronomy

May. 06, 2015 Rise Set
Actual Time
Civil Twilight
Nautical Twilight
Astronomical Twilight
Moon
Length of Visible Light
Length of Day
Tomorrow will be .
, % of the Moon is Illuminated

Today's Extremes

State Highs State Lows

Community

WunderPhotos

Upload Photos

1,818,914 photos uploaded!

WunderBlogs® & News

Nearby

Air Quality

  Air Quality AQ Index Pollutant
Not available.

Snow Depth

Station Depth Elevation

Earthquake Activity

City Distance Mag. Time & Date
Minimum magnitude displayed is 2.5.

Coastal Water Temperatures

Place Temperature

Stations

Nearby Weather Stations

Station Location Temp. Windchill Dew Point Humidity Wind Precip. Elev Updated Type